createdAt,value
2023-03-31T00:02:13.343Z,1.87
2023-03-31T00:04:46.091Z,1.63
2023-03-31T00:07:14.687Z,1.80
2023-03-31T00:09:46.040Z,1.93
2023-03-31T00:12:16.693Z,2.33
2023-03-31T00:14:43.694Z,1.63
2023-03-31T00:17:10.735Z,1.53
2023-03-31T00:19:37.763Z,1.50
2023-03-31T00:22:05.295Z,1.67
2023-03-31T00:24:33.067Z,1.47
2023-03-31T00:27:04.250Z,1.70
2023-03-31T00:29:31.437Z,1.93
2023-03-31T00:31:59.774Z,1.70
2023-03-31T00:34:27.020Z,2.00
2023-03-31T00:36:56.562Z,1.90
2023-03-31T00:39:24.684Z,1.47
2023-03-31T00:41:51.701Z,2.07
2023-03-31T00:44:24.508Z,1.70
2023-03-31T00:47:15.702Z,1.80
2023-03-31T00:49:56.991Z,1.77
2023-03-31T00:52:26.386Z,1.73
2023-03-31T00:55:02.147Z,1.70
2023-03-31T00:57:33.231Z,1.60
2023-03-31T01:00:17.324Z,1.30
2023-03-31T01:02:52.558Z,1.40
2023-03-31T01:05:24.533Z,1.43
2023-03-31T01:07:52.985Z,1.43
2023-03-31T01:10:19.786Z,1.60
2023-03-31T01:12:52.627Z,2.07
2023-03-31T01:15:19.356Z,1.63
2023-03-31T01:17:47.644Z,1.50
2023-03-31T01:20:36.168Z,1.73
2023-03-31T01:23:19.297Z,1.93
2023-03-31T01:26:06.996Z,1.60
2023-03-31T01:28:40.487Z,1.87
2023-03-31T01:31:28.443Z,1.30
2023-03-31T01:34:31.104Z,1.40
2023-03-31T01:37:56.501Z,1.53
2023-03-31T01:40:55.789Z,1.80
2023-03-31T01:43:57.040Z,1.90
2023-03-31T01:46:36.153Z,1.50
2023-03-31T01:49:35.330Z,1.57
2023-03-31T01:52:10.746Z,1.77
2023-03-31T01:54:45.546Z,1.50
2023-03-31T01:57:23.003Z,1.67
2023-03-31T02:00:01.341Z,1.70
2023-03-31T02:02:32.471Z,2.00
2023-03-31T02:05:03.334Z,1.53
2023-03-31T02:07:35.981Z,1.40
2023-03-31T02:10:07.917Z,1.50
2023-03-31T02:12:38.463Z,1.20
2023-03-31T02:15:09.413Z,1.17
2023-03-31T02:17:40.684Z,1.17
2023-03-31T02:20:15.260Z,1.43
2023-03-31T02:22:46.777Z,1.33
2023-03-31T02:25:18.808Z,1.20
2023-03-31T02:27:56.261Z,1.57
2023-03-31T02:30:24.254Z,1.83
2023-03-31T02:32:51.028Z,1.10
2023-03-31T02:35:20.410Z,1.40
2023-03-31T02:37:50.048Z,1.07
2023-03-31T02:40:22.655Z,1.20
2023-03-31T02:42:49.644Z,0.93
2023-03-31T02:45:38.020Z,1.37
2023-03-31T02:48:08.453Z,1.10
2023-03-31T02:50:50.575Z,1.13
2023-03-31T02:53:42.892Z,1.30
2023-03-31T02:56:46.238Z,1.33
2023-03-31T02:59:34.382Z,1.13
2023-03-31T03:02:08.924Z,1.33
2023-03-31T03:05:03.949Z,1.20
2023-03-31T03:08:07.121Z,1.60
2023-03-31T03:11:02.475Z,1.17
2023-03-31T03:13:43.051Z,1.23
2023-03-31T03:16:37.191Z,1.43
2023-03-31T03:19:06.841Z,1.17
2023-03-31T03:21:33.872Z,1.13
2023-03-31T03:24:01.637Z,1.43
2023-03-31T03:26:28.712Z,1.80
2023-03-31T03:28:56.659Z,2.20
2023-03-31T03:31:26.172Z,3.10
2023-03-31T03:33:54.271Z,5.23
2023-03-31T03:36:21.139Z,4.70
2023-03-31T03:38:47.647Z,6.27
2023-03-31T03:41:14.131Z,3.20
2023-03-31T03:43:40.878Z,3.90
2023-03-31T03:46:07.717Z,2.50
2023-03-31T03:48:35.294Z,2.93
2023-03-31T03:51:02.223Z,1.77
2023-03-31T03:53:28.797Z,1.87
2023-03-31T03:55:57.090Z,3.50
2023-03-31T03:58:23.616Z,3.33
2023-03-31T04:00:50.454Z,2.47
2023-03-31T04:03:18.233Z,1.33
2023-03-31T04:05:45.480Z,1.93
2023-03-31T04:08:12.005Z,2.17
2023-03-31T04:10:43.606Z,1.67
2023-03-31T04:13:10.138Z,1.90
2023-03-31T04:15:36.703Z,1.43
2023-03-31T04:18:03.524Z,1.43
2023-03-31T04:20:30.922Z,1.30
2023-03-31T04:22:57.704Z,2.00
2023-03-31T04:25:24.298Z,1.70
2023-03-31T04:27:54.676Z,1.90
2023-03-31T04:30:30.674Z,1.73
2023-03-31T04:33:02.957Z,1.90
2023-03-31T04:35:42.835Z,2.00
2023-03-31T04:38:09.925Z,2.00
2023-03-31T04:40:36.501Z,1.80
2023-03-31T04:43:03.056Z,2.53
2023-03-31T04:45:29.810Z,2.43
2023-03-31T04:47:57.410Z,3.50
2023-03-31T04:50:24.091Z,3.00
2023-03-31T04:52:50.702Z,2.67
2023-03-31T04:55:17.540Z,2.47
2023-03-31T04:57:46.549Z,2.30
2023-03-31T05:00:13.833Z,2.83
2023-03-31T05:02:40.443Z,2.30
2023-03-31T05:05:07.169Z,2.60
2023-03-31T05:07:33.689Z,3.00
2023-03-31T05:10:00.327Z,3.37
2023-03-31T05:12:26.836Z,3.37
2023-03-31T05:14:53.242Z,3.47
2023-03-31T05:17:21.595Z,9.23
2023-03-31T05:19:47.985Z,15.10
2023-03-31T05:22:14.475Z,5.30
2023-03-31T05:24:41.152Z,3.60
2023-03-31T05:27:07.569Z,4.07
2023-03-31T05:29:34.128Z,4.10
2023-03-31T05:32:01.997Z,4.07
2023-03-31T05:34:28.705Z,4.00
2023-03-31T05:36:55.915Z,4.00
2023-03-31T05:39:22.508Z,4.10
2023-03-31T05:41:49.152Z,5.43
2023-03-31T05:44:15.992Z,4.90
2023-03-31T05:46:42.863Z,5.83
2023-03-31T05:49:10.012Z,4.40
2023-03-31T05:51:36.503Z,4.23
2023-03-31T05:54:03.232Z,3.97
2023-03-31T05:56:30.884Z,4.30
2023-03-31T05:59:00.443Z,4.30
2023-03-31T06:01:28.134Z,4.17
2023-03-31T06:03:54.862Z,4.17
2023-03-31T06:06:21.551Z,4.07
2023-03-31T06:08:49.221Z,4.20
2023-03-31T06:11:19.325Z,4.10
2023-03-31T06:13:46.533Z,3.73
2023-03-31T06:16:15.003Z,4.20
2023-03-31T06:18:41.869Z,3.67
2023-03-31T06:21:11.395Z,3.97
2023-03-31T06:23:37.964Z,3.87
2023-03-31T06:26:08.890Z,4.30
2023-03-31T06:28:36.218Z,4.17
2023-03-31T06:31:05.139Z,3.90
2023-03-31T06:33:33.174Z,4.73
2023-03-31T06:36:01.604Z,3.93
2023-03-31T06:38:28.452Z,4.67
2023-03-31T06:40:55.258Z,4.00
2023-03-31T06:43:22.130Z,3.90
2023-03-31T06:46:04.443Z,3.80
2023-03-31T06:48:31.408Z,4.00
2023-03-31T06:51:04.014Z,4.50
2023-03-31T06:53:31.155Z,4.10
2023-03-31T06:55:58.453Z,4.10
2023-03-31T06:58:25.044Z,4.30
2023-03-31T07:00:52.760Z,4.37
2023-03-31T07:03:25.070Z,4.10
2023-03-31T07:05:53.511Z,4.37
2023-03-31T07:08:21.468Z,5.23
2023-03-31T07:10:50.564Z,5.53
2023-03-31T07:13:18.014Z,5.53
2023-03-31T07:15:47.927Z,5.53
2023-03-31T07:18:15.958Z,4.57
2023-03-31T07:20:43.974Z,3.90
2023-03-31T07:23:10.879Z,4.10
2023-03-31T07:25:37.324Z,4.00
2023-03-31T07:28:05.207Z,3.70
2023-03-31T07:30:32.671Z,4.07
2023-03-31T07:32:59.817Z,3.93
2023-03-31T07:35:26.454Z,3.87
2023-03-31T07:37:53.879Z,3.63
2023-03-31T07:40:24.128Z,4.20
2023-03-31T07:42:52.290Z,3.30
2023-03-31T07:45:21.419Z,3.20
2023-03-31T07:47:48.766Z,3.37
2023-03-31T07:50:16.507Z,2.20
2023-03-31T07:52:46.828Z,2.10
2023-03-31T07:55:14.448Z,2.00
2023-03-31T07:57:41.839Z,1.87
2023-03-31T08:00:12.115Z,2.03
2023-03-31T08:02:39.814Z,1.80
2023-03-31T08:05:07.598Z,2.40
2023-03-31T08:07:38.894Z,2.20
2023-03-31T08:10:07.886Z,1.97
2023-03-31T08:12:34.690Z,2.80
2023-03-31T08:15:01.361Z,3.50
2023-03-31T08:17:28.190Z,3.53
2023-03-31T08:19:54.670Z,3.43
2023-03-31T08:22:23.545Z,3.00
2023-03-31T08:24:50.168Z,3.57
2023-03-31T08:27:17.087Z,4.00
2023-03-31T08:29:43.943Z,3.33
2023-03-31T08:32:12.144Z,3.57
2023-03-31T08:34:38.811Z,3.03
2023-03-31T08:37:06.201Z,2.80
2023-03-31T08:39:39.034Z,2.20
2023-03-31T08:42:35.851Z,2.33
2023-03-31T08:45:33.978Z,2.40
2023-03-31T08:48:25.685Z,2.53
2023-03-31T08:51:08.473Z,2.23
2023-03-31T08:53:42.532Z,2.10
2023-03-31T08:56:20.217Z,2.00
2023-03-31T08:58:49.903Z,2.10
2023-03-31T09:01:19.769Z,2.23
2023-03-31T09:03:53.591Z,1.97
2023-03-31T09:06:33.799Z,1.70
2023-03-31T09:09:03.389Z,2.20
2023-03-31T09:11:39.829Z,1.83
2023-03-31T09:14:39.928Z,1.90
2023-03-31T09:17:29.270Z,2.53
2023-03-31T09:20:08.867Z,1.97
2023-03-31T09:22:40.621Z,1.80
2023-03-31T09:25:19.232Z,1.90
2023-03-31T09:27:47.626Z,2.23
2023-03-31T09:30:23.160Z,2.00
2023-03-31T09:32:53.563Z,2.70
2023-03-31T09:35:26.172Z,2.10
2023-03-31T09:37:54.290Z,1.87
2023-03-31T09:40:24.458Z,1.73
2023-03-31T09:43:28.067Z,1.50
2023-03-31T09:48:35.142Z,1.50
2023-03-31T09:51:06.623Z,1.80
2023-03-31T09:53:40.750Z,2.17
2023-03-31T09:56:09.393Z,2.10
2023-03-31T09:58:44.190Z,1.90
2023-03-31T10:01:12.998Z,2.10
2023-03-31T10:03:51.339Z,2.40
2023-03-31T10:06:18.488Z,2.27
2023-03-31T10:08:59.611Z,3.53
2023-03-31T10:11:29.095Z,2.73
2023-03-31T10:14:15.688Z,3.13
2023-03-31T10:16:55.233Z,2.97
2023-03-31T10:19:24.610Z,2.70
2023-03-31T10:21:59.878Z,2.57
2023-03-31T10:24:35.823Z,2.30
2023-03-31T10:27:02.823Z,2.37
2023-03-31T10:29:32.603Z,2.30
2023-03-31T10:32:05.017Z,1.67
2023-03-31T10:34:32.173Z,2.20
2023-03-31T10:36:59.750Z,2.20
2023-03-31T10:39:33.163Z,1.63
2023-03-31T10:42:00.900Z,1.07
2023-03-31T10:44:32.041Z,1.00
2023-03-31T10:47:22.429Z,1.30
2023-03-31T10:49:55.948Z,2.97
2023-03-31T10:52:27.514Z,2.13
2023-03-31T10:54:59.883Z,3.07
2023-03-31T10:57:55.499Z,3.50
2023-03-31T11:00:28.550Z,3.10
2023-03-31T11:03:18.079Z,2.60
2023-03-31T11:05:44.831Z,2.47
2023-03-31T11:08:28.831Z,2.03
2023-03-31T11:11:22.311Z,1.60
2023-03-31T11:13:59.632Z,2.40
2023-03-31T11:16:35.318Z,2.10
2023-03-31T11:19:29.358Z,1.77
2023-03-31T11:22:10.253Z,2.40
2023-03-31T11:25:03.163Z,2.60
2023-03-31T11:27:39.111Z,1.48
2023-03-31T11:30:22.453Z,1.93
2023-03-31T11:32:58.062Z,2.43
2023-03-31T11:35:56.920Z,1.70
2023-03-31T11:38:44.675Z,2.10
2023-03-31T11:41:18.382Z,2.10
2023-03-31T11:43:56.409Z,1.93
2023-03-31T11:46:38.957Z,2.07
2023-03-31T11:49:52.346Z,1.80
2023-03-31T11:52:25.448Z,1.90
2023-03-31T11:54:59.067Z,1.60
2023-03-31T11:57:33.388Z,1.40
2023-03-31T12:00:13.686Z,1.40
2023-03-31T12:02:50.922Z,1.20
2023-03-31T12:05:18.809Z,1.67
2023-03-31T12:08:02.893Z,0.97
2023-03-31T12:10:41.706Z,1.33
2023-03-31T12:13:20.466Z,1.00
2023-03-31T12:16:01.229Z,0.90
2023-03-31T12:18:36.454Z,0.90
2023-03-31T12:21:05.517Z,0.93
2023-03-31T12:23:40.216Z,2.77
2023-03-31T12:26:25.006Z,1.10
2023-03-31T12:28:58.341Z,1.20
2023-03-31T12:31:28.052Z,0.70
2023-03-31T12:34:01.879Z,0.73
2023-03-31T12:36:40.012Z,0.87
2023-03-31T12:39:23.098Z,1.43
2023-03-31T12:42:20.281Z,1.30
2023-03-31T12:45:18.124Z,1.97
2023-03-31T12:48:07.120Z,0.80
2023-03-31T12:51:10.983Z,1.10
2023-03-31T12:54:00.555Z,1.10
2023-03-31T12:56:27.618Z,1.10
2023-03-31T12:58:54.133Z,1.42
2023-03-31T13:01:24.546Z,0.80
2023-03-31T13:04:19.922Z,1.47
2023-03-31T13:06:52.795Z,1.30
2023-03-31T13:09:19.140Z,1.43
2023-03-31T13:11:50.180Z,1.60
2023-03-31T13:14:23.086Z,1.23
2023-03-31T13:16:53.495Z,2.00
2023-03-31T13:19:32.338Z,1.23
2023-03-31T13:22:01.256Z,1.60
2023-03-31T13:24:31.059Z,1.30
2023-03-31T13:27:00.964Z,1.20
2023-03-31T13:29:44.503Z,1.77
2023-03-31T13:32:25.542Z,1.50
2023-03-31T13:34:58.531Z,0.97
2023-03-31T13:37:48.474Z,0.90
2023-03-31T13:40:29.440Z,0.93
2023-03-31T13:43:09.133Z,1.90
2023-03-31T13:45:52.552Z,1.50
2023-03-31T13:48:23.825Z,1.83
2023-03-31T13:50:56.081Z,1.87
2023-03-31T13:53:47.351Z,1.10
2023-03-31T13:56:45.040Z,1.07
2023-03-31T13:59:31.860Z,1.50
2023-03-31T14:02:23.634Z,1.40
2023-03-31T14:04:59.485Z,1.40
2023-03-31T14:07:36.841Z,1.83
2023-03-31T14:10:04.713Z,1.60
2023-03-31T14:12:34.020Z,1.43
2023-03-31T14:15:00.764Z,1.50
2023-03-31T14:17:30.358Z,1.60
2023-03-31T14:20:15.617Z,1.53
2023-03-31T14:22:56.415Z,1.70
2023-03-31T14:25:44.049Z,1.90
2023-03-31T14:28:26.484Z,1.60
2023-03-31T14:31:13.685Z,1.93
2023-03-31T14:33:57.705Z,1.70
2023-03-31T14:36:38.907Z,3.13
2023-03-31T14:39:09.845Z,1.67
2023-03-31T14:41:38.037Z,1.73
2023-03-31T14:44:14.756Z,1.97
2023-03-31T14:46:41.456Z,1.87
2023-03-31T14:49:34.399Z,2.03
2023-03-31T14:52:03.341Z,2.23
2023-03-31T14:54:34.706Z,2.60
2023-03-31T14:57:02.271Z,2.10
2023-03-31T14:59:33.739Z,1.47
2023-03-31T15:02:03.502Z,1.40
2023-03-31T15:04:42.469Z,1.60
2023-03-31T15:07:10.071Z,1.20
2023-03-31T15:09:36.747Z,1.50
2023-03-31T15:12:07.419Z,1.77
2023-03-31T15:14:40.601Z,3.57
2023-03-31T15:17:18.178Z,2.77
2023-03-31T15:19:48.591Z,1.33
2023-03-31T15:22:18.768Z,1.00
2023-03-31T15:24:46.578Z,1.30
2023-03-31T15:27:33.963Z,1.33
2023-03-31T15:30:08.918Z,1.43
2023-03-31T15:32:37.992Z,1.30
2023-03-31T15:35:18.760Z,1.80
2023-03-31T15:37:50.018Z,2.03
2023-03-31T15:40:28.848Z,1.50
2023-03-31T15:45:31.073Z,1.50
2023-03-31T15:48:02.810Z,1.70
2023-03-31T15:50:29.796Z,1.60
2023-03-31T15:53:01.474Z,1.70
2023-03-31T15:55:29.741Z,2.07
2023-03-31T15:57:58.809Z,2.10
2023-03-31T16:00:31.602Z,1.80
2023-03-31T16:03:00.169Z,2.80
2023-03-31T16:08:43.862Z,1.83
2023-03-31T16:11:15.471Z,2.77
2023-03-31T16:13:34.737Z,3.40
2023-03-31T16:13:48.729Z,3.87
2023-03-31T16:16:18.923Z,1.77
2023-03-31T16:18:51.028Z,2.63
2023-03-31T16:21:24.946Z,1.87
2023-03-31T16:23:58.233Z,1.60
2023-03-31T16:26:27.770Z,1.27
2023-03-31T16:28:57.850Z,1.40
2023-03-31T16:31:34.778Z,1.63
2023-03-31T16:34:03.616Z,1.40
2023-03-31T16:36:33.365Z,2.20
2023-03-31T16:39:01.905Z,1.67
2023-03-31T16:41:29.320Z,3.90
2023-03-31T16:43:55.775Z,10.47
2023-03-31T16:46:23.326Z,4.03
2023-03-31T16:48:51.808Z,3.13
2023-03-31T16:51:19.170Z,2.80
2023-03-31T16:53:47.340Z,2.90
2023-03-31T16:56:15.745Z,2.00
2023-03-31T16:58:43.637Z,2.57
2023-03-31T17:01:13.114Z,2.23
2023-03-31T17:03:42.375Z,1.57
2023-03-31T17:06:13.288Z,1.50
2023-03-31T17:08:40.665Z,1.03
2023-03-31T17:11:11.589Z,1.00
2023-03-31T17:13:39.595Z,0.87
2023-03-31T17:16:18.666Z,1.53
2023-03-31T17:18:49.010Z,1.70
2023-03-31T17:21:19.143Z,1.10
2023-03-31T17:23:48.825Z,0.93
2023-03-31T17:26:17.668Z,0.73
2023-03-31T17:28:44.335Z,1.20
2023-03-31T17:31:16.413Z,0.93
2023-03-31T17:33:46.022Z,0.90
2023-03-31T17:36:12.703Z,1.00
2023-03-31T17:38:39.739Z,1.10
2023-03-31T17:41:08.912Z,1.17
2023-03-31T17:43:36.220Z,1.00
2023-03-31T17:46:05.327Z,1.00
2023-03-31T17:48:34.410Z,1.20
2023-03-31T17:51:10.367Z,0.90
2023-03-31T17:53:36.871Z,2.17
2023-03-31T17:56:04.634Z,1.93
2023-03-31T17:58:34.643Z,1.37
2023-03-31T18:01:04.835Z,4.20
2023-03-31T18:03:31.722Z,1.70
2023-03-31T18:06:06.639Z,1.30
2023-03-31T18:08:34.738Z,1.00
2023-03-31T18:11:03.223Z,1.20
2023-03-31T18:13:33.017Z,1.30
2023-03-31T18:16:01.426Z,1.80
2023-03-31T18:18:29.063Z,1.30
2023-03-31T18:20:56.220Z,1.63
2023-03-31T18:23:23.633Z,1.50
2023-03-31T18:25:50.365Z,1.10
2023-03-31T18:28:18.757Z,1.43
2023-03-31T18:30:49.461Z,1.30
2023-03-31T18:33:16.465Z,2.87
2023-03-31T18:35:44.369Z,4.83
2023-03-31T18:38:11.120Z,2.70
2023-03-31T18:40:37.819Z,2.03
2023-03-31T18:43:06.159Z,2.37
2023-03-31T18:45:33.660Z,1.50
2023-03-31T18:48:00.713Z,2.63
2023-03-31T18:50:27.271Z,1.90
2023-03-31T18:52:54.703Z,1.70
2023-03-31T18:55:22.144Z,0.90
2023-03-31T18:57:53.048Z,0.90
2023-03-31T19:00:20.601Z,1.70
2023-03-31T19:02:47.549Z,1.20
2023-03-31T19:05:16.209Z,1.07
2023-03-31T19:07:43.153Z,1.00
2023-03-31T19:10:10.148Z,1.27
2023-03-31T19:12:36.668Z,1.13
2023-03-31T19:15:03.678Z,1.70
2023-03-31T19:17:30.249Z,1.73
2023-03-31T19:19:56.669Z,1.47
2023-03-31T19:22:23.316Z,0.90
2023-03-31T19:24:49.766Z,1.30
2023-03-31T19:27:16.236Z,1.03
2023-03-31T19:29:42.735Z,1.30
2023-03-31T19:32:10.538Z,1.23
2023-03-31T19:34:37.073Z,1.20
2023-03-31T19:37:05.469Z,1.20
2023-03-31T19:39:32.263Z,1.27
2023-03-31T19:41:58.801Z,0.73
2023-03-31T19:44:25.420Z,1.03
2023-03-31T19:46:51.864Z,1.80
2023-03-31T19:49:20.236Z,1.00
2023-03-31T19:51:47.237Z,1.30
2023-03-31T19:54:13.761Z,1.97
2023-03-31T19:56:40.222Z,1.00
2023-03-31T19:59:06.909Z,1.23
2023-03-31T20:01:33.971Z,2.47
2023-03-31T20:04:00.853Z,3.57
2023-03-31T20:06:31.859Z,1.17
2023-03-31T20:09:00.429Z,1.77
2023-03-31T20:11:28.974Z,2.37
2023-03-31T20:13:56.642Z,1.40
2023-03-31T20:16:25.568Z,1.37
2023-03-31T20:18:58.249Z,1.20
2023-03-31T20:21:27.622Z,1.20
2023-03-31T20:23:54.839Z,1.17
2023-03-31T20:26:24.973Z,1.03
2023-03-31T20:28:54.970Z,1.60
2023-03-31T20:31:24.063Z,1.33
2023-03-31T20:33:52.116Z,1.40
2023-03-31T20:36:21.842Z,1.20
2023-03-31T20:38:53.197Z,1.10
2023-03-31T20:41:22.767Z,1.10
2023-03-31T20:43:50.866Z,1.50
2023-03-31T20:46:18.558Z,1.00
2023-03-31T20:48:47.987Z,1.33
2023-03-31T20:51:17.691Z,1.00
2023-03-31T20:53:46.674Z,1.00
2023-03-31T20:56:18.299Z,1.17
2023-03-31T20:58:46.177Z,2.27
2023-03-31T21:01:13.940Z,3.53
2023-03-31T21:03:41.355Z,2.17
2023-03-31T21:06:11.934Z,1.30
2023-03-31T21:08:39.685Z,0.93
2023-03-31T21:11:06.652Z,1.07
2023-03-31T21:13:33.308Z,1.23
2023-03-31T21:16:01.210Z,1.20
2023-03-31T21:18:29.694Z,1.57
2023-03-31T21:21:05.147Z,2.00
2023-03-31T21:23:31.939Z,1.20
2023-03-31T21:26:03.091Z,1.90
2023-03-31T21:28:32.314Z,1.30
2023-03-31T21:31:18.222Z,0.97
2023-03-31T21:33:47.261Z,1.97
2023-03-31T21:36:16.897Z,1.00
2023-03-31T21:38:44.547Z,1.10
2023-03-31T21:41:13.792Z,1.13
2023-03-31T21:43:41.005Z,1.03
2023-03-31T21:46:09.106Z,1.40
2023-03-31T21:48:35.792Z,0.97
2023-03-31T21:51:03.021Z,1.20
2023-03-31T21:53:31.156Z,1.00
2023-03-31T21:55:58.610Z,2.40
2023-03-31T21:58:28.447Z,1.27
2023-03-31T22:00:57.855Z,1.20
2023-03-31T22:03:28.398Z,1.50
2023-03-31T22:05:56.049Z,0.90
2023-03-31T22:08:22.924Z,0.80
2023-03-31T22:10:51.776Z,0.87
2023-03-31T22:13:20.651Z,0.93
2023-03-31T22:15:47.362Z,1.07
2023-03-31T22:18:14.659Z,1.13
2023-03-31T22:20:41.224Z,0.90
2023-03-31T22:23:07.728Z,1.03
2023-03-31T22:25:34.569Z,1.00
2023-03-31T22:28:03.066Z,0.80
2023-03-31T22:30:31.625Z,1.50
2023-03-31T22:32:58.185Z,1.20
2023-03-31T22:35:24.797Z,1.10
2023-03-31T22:37:53.837Z,0.90
2023-03-31T22:40:20.612Z,1.00
2023-03-31T22:42:48.771Z,1.37
2023-03-31T22:45:16.436Z,0.80
2023-03-31T22:47:43.358Z,1.00
2023-03-31T22:50:11.241Z,0.80
2023-03-31T22:52:37.895Z,1.27
2023-03-31T22:55:05.487Z,0.77
2023-03-31T22:57:32.377Z,0.80
2023-03-31T22:59:59.243Z,0.93
2023-03-31T23:02:26.209Z,1.10
2023-03-31T23:04:53.100Z,1.03
2023-03-31T23:07:21.839Z,0.80
2023-03-31T23:09:48.952Z,1.03
2023-03-31T23:12:15.659Z,1.33
2023-03-31T23:14:42.176Z,0.93
2023-03-31T23:17:08.687Z,0.90
2023-03-31T23:19:35.450Z,0.80
2023-03-31T23:22:02.626Z,1.17
2023-03-31T23:24:30.251Z,1.10
2023-03-31T23:26:57.381Z,1.03
2023-03-31T23:29:24.085Z,0.90
2023-03-31T23:31:50.954Z,1.00
2023-03-31T23:34:17.585Z,1.20
2023-03-31T23:36:44.194Z,1.20
2023-03-31T23:39:11.893Z,1.00
2023-03-31T23:41:38.522Z,1.57
2023-03-31T23:44:06.159Z,1.23
2023-03-31T23:46:33.763Z,1.30
2023-03-31T23:49:02.948Z,1.30
2023-03-31T23:51:29.542Z,1.23
2023-03-31T23:53:57.307Z,0.90
2023-03-31T23:56:24.843Z,0.90
2023-03-31T23:58:51.318Z,1.10
